Sheoaks, Australia
Current Conditions -  °F | °C
As of 10:30 PM on Thursday 27 Nov 2014 (Local Time) from YMAV Reporting Station
Overcast Overcast  
Wind Chill: 55°   Ceiling: 2100
Heat Index: 55°   Visibility: 6mi
Dew Point: 48°   Wind: 10mph
Humidity: 77%   Direction: 160°SSE
Pressure: 30.27"   Gusts: NA
Location:  37.9°S, 144.12°E
Report Text: YMAV 271130Z AUTO 16009KT 9999 // OVC021 13/09 Q1025
Loading
Personal Weather Stations






























Interactive Weather Map New forecast layout! Learn more

10-Day Weather Forecast

Advertisements
Track Severe Weather on mobile